• Join FlightAware (Why Join?)
  • Login
  • US Flag 
03:19AM EDT


 

Airport Tracker/Info


-or-


 

Live Flight TrackerFlight Track Log ✈ AAY823 ✈ 14-Jul-2014 ✈ KELM - KPIE

Flight Track Log - Related Links

Times and Time Zones

All times are in EDT time to prevent confusion due to time zone crossing. See the AAY823 flight status page for this flight to view local times or setup timezone preferences in your user account.

Time Position Orientation Groundspeed Altitude Reporting Facility
EDT Latitude Longitude Course Direction KTS MPH feet Rate Location/Type
12:02PM 42.0722 -77.0039 196° South 221 254 4,700  Level New York Center
12:03PM 42.0111 -77.0567 213° Southwest 243 280 7,800 2,820 Climbing New York Center
12:04PM 41.9478 -77.1122 213° Southwest 270 311 10,500 2,100 Climbing New York Center
12:05PM 41.8756 -77.1750 213° Southwest 289 333 12,000 1,440 Climbing New York Center
12:06PM 41.7950 -77.2422 212° Southwest 321 369 13,500 1,920 Climbing New York Center
12:07PM 40.1381 -78.2831 196° South  Level FlightAware Approximate
12:07PM 41.6964 -77.3300 214° Southwest 366 421 15,900  Level New York Center
12:08PM 41.6089 -77.4047 213° Southwest 387 445 17,800 1,920 Climbing New York Center
12:09PM 41.5169 -77.4869 214° Southwest 393 452 19,700 1,860 Climbing New York Center
12:10PM 41.4228 -77.5661 212° Southwest 398 458 21,600 1,680 Climbing New York Center
12:11PM 41.3286 -77.6453 212° Southwest 398 458 23,200 1,440 Climbing New York Center
12:12PM 41.2322 -77.7264 212° Southwest 403 464 24,600 1,320 Climbing New York Center
12:14PM 41.1033 -77.8367 213° Southwest 408 470 26,500 1,560 Climbing Cleveland Center
12:15PM 40.9889 -77.9319 212° Southwest 407 468 28,600 1,500 Climbing Cleveland Center
12:16PM 40.8933 -78.0014 209° Southwest 400 460 29,700 1,020 Climbing Cleveland Center
12:17PM 40.7867 -78.0442 197° South 404 465 30,800 840 Climbing Cleveland Center
12:18PM 40.6797 -78.0844 196° South 400 460 31,500 540 Climbing Cleveland Center
12:19PM 40.5717 -78.1250 196° South 401 461 32,000 240 Climbing Cleveland Center
12:20PM 40.4625 -78.1667 196° South 404 465 32,000  Level Cleveland Center
12:21PM 40.3333 -78.2161 196° South 404 465 32,100  Climbing Cleveland Center
12:22PM 40.2256 -78.2569 196° South 405 466 32,100 -60 Level Cleveland Center
12:23PM 40.1181 -78.2981 196° South 404 465 32,000 -60 Descending Cleveland Center
12:24PM 40.0108 -78.3383 196° South 404 465 32,000  Level Cleveland Center
12:25PM 39.9014 -78.3703 193° South 405 466 32,000  Level Cleveland Center
12:26PM 39.7708 -78.4075 192° South 402 463 32,000  Level Cleveland Center
12:27PM 39.6719 -78.4469 197° South 402 463 32,000  Level Cleveland Center
12:28PM 39.5833 -78.4808 196° South 410 472 32,000  Level Washington Center
12:29PM 39.4739 -78.5247 197° South 410 472 32,000  Level Washington Center
12:30PM 39.3622 -78.5686 197° South 410 472 32,000  Level Washington Center
12:31PM 39.2531 -78.6069 195° South 410 472 32,000  Level Washington Center
12:32PM 39.1392 -78.6506 197° South 410 472 32,000  Level Washington Center
12:33PM 39.0278 -78.6911 196° South 415 478 32,000  Level Washington Center
12:34PM 38.9161 -78.7344 197° South 420 483 32,000  Level Washington Center
12:35PM 38.8003 -78.7775 196° South 432 497 32,000  Level Washington Center
12:36PM 38.6844 -78.8203 196° South 432 497 32,000  Level Washington Center
12:37PM 38.5708 -78.8658 197° South 432 497 32,000  Level Washington Center
12:38PM 38.4592 -78.9061 196° South 432 497 32,000  Level Washington Center
12:39PM 38.3431 -78.9511 197° South 432 497 32,000  Level Washington Center
12:40PM 38.2253 -78.9933 196° South 432 497 32,000  Level Washington Center
12:41PM 38.1072 -79.0383 197° South 437 503 32,000  Level Washington Center
12:42PM 37.9892 -79.0803 196° South 444 511 32,000  Level Washington Center
12:43PM 37.8747 -79.1356 201° Southwest 444 511 32,000  Level Washington Center
12:44PM 37.7606 -79.1878 200° South 444 511 32,000  Level Washington Center
12:45PM 37.6442 -79.2428 201° Southwest 444 511 32,000  Level Washington Center
12:46PM 37.5172 -79.3047 201° Southwest 450 518 32,000  Level Washington Center
12:47PM 37.4072 -79.3489 198° South 455 524 32,000  Level Washington Center
12:48PM 37.2908 -79.4058 201° Southwest 455 524 32,000  Level Washington Center
12:49PM 37.1636 -79.4672 201° Southwest 455 524 32,000  Level Washington Center
12:50PM 37.0494 -79.5189 200° South 455 524 32,000  Level Washington Center
12:51PM 36.9350 -79.5728 201° Southwest 450 518 32,000  Level Washington Center
12:52PM 36.8183 -79.6239 199° South 450 518 32,000  Level Washington Center
12:53PM 36.7017 -79.6800 201° Southwest 450 518 32,000  Level Washington Center
12:54PM 36.5853 -79.7333 200° South 450 518 32,000  Level Washington Center
12:56PM 36.4272 -79.8019 199° South 470 541 32,000  Level Atlanta Center
12:57PM 36.3103 -79.8544 200° South 458 527 32,000  Level Atlanta Center
12:58PM 36.1931 -79.9069 200° South 458 527 32,000  Level Atlanta Center
12:59PM 36.0761 -79.9592 200° South 453 521 32,000  Level Atlanta Center
01:00PM 35.9611 -80.0161 202° Southwest 453 521 32,000  Level Atlanta Center
01:01PM 35.8461 -80.0731 202° Southwest 448 516 32,000  Level Atlanta Center
01:02PM 35.7311 -80.1325 203° Southwest 448 516 32,000  Level Atlanta Center
01:03PM 35.6039 -80.1972 202° Southwest 448 516 32,000  Level Atlanta Center
01:04PM 35.4869 -80.2564 202° Southwest 448 516 32,000  Level Atlanta Center
01:05PM 35.3819 -80.3069 201° Southwest 448 516 32,000  Level Atlanta Center
01:06PM 35.2669 -80.3656 203° Southwest 448 516 32,000  Level Atlanta Center
01:08PM 35.0336 -80.4817 202° Southwest 475 547 32,000  Level Jacksonville Center
01:09PM 34.9161 -80.5433 203° Southwest 470 541 32,000  Level Jacksonville Center
01:10PM 34.7919 -80.6072 203° Southwest 465 535 32,000 -60 Level Jacksonville Center
01:11PM 34.6742 -80.6608 201° Southwest 453 521 31,900  Descending Jacksonville Center
01:12PM 34.5644 -80.7142 202° Southwest 459 528 32,000  Climbing Jacksonville Center
01:13PM 34.4447 -80.7803 204° Southwest 467 537 32,000  Level Jacksonville Center
01:14PM 34.3267 -80.8333 200° South 472 543 32,000  Level Jacksonville Center
01:15PM 34.2003 -80.8914 201° Southwest 466 536 32,000  Level Jacksonville Center
01:16PM 34.0844 -80.9494 203° Southwest 461 531 32,000 -60 Level Jacksonville Center
01:17PM 33.9664 -81.0044 201° Southwest 456 525 31,900  Descending Jacksonville Center
01:18PM 33.8564 -81.0544 201° Southwest 456 525 32,000  Climbing Jacksonville Center
01:19PM 33.7281 -81.1219 204° Southwest 461 531 32,000  Level Jacksonville Center
01:20PM 33.6097 -81.1792 202° Southwest 461 531 32,000  Level Jacksonville Center
01:21PM 33.4917 -81.2389 203° Southwest 461 531 32,000  Level Jacksonville Center
01:22PM 33.3733 -81.2958 202° Southwest 466 536 32,000 -60 Level Jacksonville Center
01:23PM 33.2531 -81.3550 202° Southwest 466 536 31,900 -60 Descending Jacksonville Center
01:24PM 33.1347 -81.4117 202° Southwest 466 536 31,900  Level Jacksonville Center
01:25PM 33.0167 -81.4706 203° Southwest 472 543 32,000  Climbing Jacksonville Center
01:26PM 32.8981 -81.5269 202° Southwest 472 543 32,000  Level Jacksonville Center
01:27PM 32.7797 -81.5881 203° Southwest 472 543 32,000  Level Jacksonville Center
01:28PM 32.6717 -81.6364 201° Southwest 472 543 32,000  Level Jacksonville Center
01:29PM 32.5389 -81.7022 203° Southwest 467 537 32,000  Level Jacksonville Center
01:30PM 32.4264 -81.7333 193° South 467 537 32,000  Level Jacksonville Center
01:31PM 32.2889 -81.7644 191° South 467 537 32,000  Level Jacksonville Center
01:32PM 32.1597 -81.7931 191° South 467 537 32,000  Level Jacksonville Center
01:33PM 32.0492 -81.8167 190° South 467 537 32,000  Level Jacksonville Center
01:34PM 31.9075 -81.8500 191° South 467 537 32,000  Level Jacksonville Center
01:35PM 31.7972 -81.8758 191° South 467 537 32,000  Level Jacksonville Center
01:36PM 31.6553 -81.9067 190° South 467 537 32,000  Level Jacksonville Center
01:37PM 31.5325 -81.9347 191° South 467 537 32,000  Level Jacksonville Center
01:38PM 31.4178 -81.9603 191° South 467 537 32,000  Level Jacksonville Center
01:39PM 31.2906 -81.9906 191° South 467 537 32,000  Level Jacksonville Center
01:40PM 31.1656 -82.0186 191° South 467 537 32,000  Level Jacksonville Center
01:41PM 31.0403 -82.0439 190° South 467 537 32,000  Level Jacksonville Center
01:42PM 30.9153 -82.0742 192° South 467 537 32,000 -60 Level Jacksonville Center
01:43PM 30.7903 -82.0994 190° South 467 537 31,900 -60 Descending Jacksonville Center
01:44PM 30.6714 -82.1269 191° South 461 531 31,900  Level Jacksonville Center
01:45PM 30.5336 -82.1522 189° South 461 531 32,000  Climbing Jacksonville Center
01:46PM 30.4086 -82.1772 190° South 461 531 31,900 -60 Descending Jacksonville Center
01:47PM 30.2833 -82.1950 187° South 461 531 31,900 -180 Level Jacksonville Center
01:48PM 30.1747 -82.1981 181° South 453 521 31,600 -780 Descending Jacksonville Center
01:49PM 30.0475 -82.2014 181° South 453 521 30,400 -1,320 Descending Jacksonville Center
01:50PM 29.9056 -82.2144 185° South 463 533 29,000 -1,320 Descending Jacksonville Center
01:51PM 29.7761 -82.2203 182° South 463 533 27,800 -1,200 Descending Jacksonville Center
01:52PM 29.6614 -82.2208 180° South 458 527 26,700 -1,620 Descending Jacksonville Center
01:53PM 29.5342 -82.2267 182° South 463 533 24,600 -1,620 Descending Jacksonville Center
01:54PM 29.4067 -82.2203 178° South 463 533 23,500 -1,020 Descending Jacksonville Center
01:55PM 29.2875 -82.2044 173° South 449 517 22,600 -1,020 Descending Jacksonville Center
01:56PM 29.1686 -82.1933 175° South 444 511 21,500 -1,080 Descending Jacksonville Center
01:57PM 29.0517 -82.1872 177° South 433 498 20,500 -1,620 Descending Jacksonville Center
01:58PM 28.9369 -82.1928 182° South 425 489 18,300 -2,640 Descending Jacksonville Center
02:00PM 28.7167 -82.2333 189° South 373 429 12,500 -2,400 Descending Tampa TRACON
02:01PM 28.6333 -82.2500 190° South 302 348 11,400 -720 Descending Tampa TRACON
02:02PM 28.5500 -82.2500 180° South 280 322 11,100 -240 Descending Tampa TRACON
02:03PM 28.4667 -82.2500 180° South 286 329 11,000  Descending Tampa TRACON
02:04PM 28.3833 -82.2667 190° South 289 333 11,100  Climbing Tampa TRACON
02:05PM 28.3000 -82.2667 180° South 290 334 11,100 -480 Level Tampa TRACON
02:05PM 28.2333 -82.2833 192° South 287 330 10,300 -1,260 Descending Tampa TRACON
02:06PM 28.1667 -82.3000 192° South 286 329 8,900 -1,620 Descending Tampa TRACON
02:07PM 28.0833 -82.3167 190° South 279 321 7,100 -900 Descending Tampa TRACON
02:08PM 28.0167 -82.3333 192° South 276 318 7,100 -480 Level Tampa TRACON
02:09PM 27.9333 -82.3500 190° South 282 325 6,300 -1,140 Descending Tampa TRACON
02:10PM 27.8667 -82.3667 192° South 272 313 5,000 -1,500 Descending Tampa TRACON
02:11PM 27.8000 -82.4000 204° Southwest 263 303 3,300 -1,080 Descending Tampa TRACON
02:13PM 27.7500 -82.4833 236° Southwest 257 296 2,700 -300 Descending Tampa TRACON
02:14PM 27.7167 -82.5500 241° Southwest 258 297 2,700 -60 Level Tampa TRACON
02:15PM 27.7167 -82.6333 270° West 241 277 2,600 -180 Descending Tampa TRACON
02:16PM 27.7667 -82.6667 329° Northwest 224 258 2,400 -600 Descending Tampa TRACON
02:17PM 27.8167 -82.6667 360° North 176 203 1,500 -780 Descending Tampa TRACON
02:18PM 27.8667 -82.6833 344° North 138 159 800 -720 Descending Tampa TRACON